createdAt,value
2017-10-15T00:00:26.197Z,11.84
2017-10-15T00:01:26.163Z,11.90
2017-10-15T00:02:26.128Z,11.84
2017-10-15T00:03:26.095Z,11.83
2017-10-15T00:04:26.061Z,11.80
2017-10-15T00:05:26.027Z,11.80
2017-10-15T00:06:25.991Z,11.81
2017-10-15T00:07:25.959Z,11.78
2017-10-15T00:08:25.923Z,11.81
2017-10-15T00:09:25.891Z,11.78
2017-10-15T00:10:25.857Z,11.77
2017-10-15T00:11:25.824Z,11.69
2017-10-15T00:12:25.788Z,11.65
2017-10-15T00:13:25.755Z,11.72
2017-10-15T00:14:25.721Z,11.70
2017-10-15T00:15:25.685Z,11.68
2017-10-15T00:16:25.652Z,11.66
2017-10-15T00:17:25.619Z,11.66
2017-10-15T00:18:25.584Z,11.68
2017-10-15T00:19:25.548Z,11.73
2017-10-15T00:20:25.520Z,11.73
2017-10-15T00:21:25.488Z,11.75
2017-10-15T00:22:25.448Z,11.80
2017-10-15T00:23:25.414Z,11.84
2017-10-15T00:24:25.384Z,11.80
2017-10-15T00:25:25.346Z,11.83
2017-10-15T00:26:25.319Z,11.84
2017-10-15T00:27:25.277Z,11.81
2017-10-15T00:28:25.243Z,11.81
2017-10-15T00:29:25.210Z,11.86
2017-10-15T00:30:25.176Z,11.80
2017-10-15T00:31:25.143Z,11.84
2017-10-15T00:32:25.112Z,11.84
2017-10-15T00:33:25.075Z,11.83
2017-10-15T00:34:25.041Z,11.87
2017-10-15T00:35:25.018Z,11.97
2017-10-15T00:36:24.971Z,11.81
2017-10-15T00:37:24.937Z,11.83
2017-10-15T00:38:25.560Z,11.78
2017-10-15T00:39:24.869Z,11.78
2017-10-15T00:40:24.834Z,11.78
2017-10-15T00:41:24.808Z,11.94
2017-10-15T00:42:24.766Z,11.97
2017-10-15T00:43:24.733Z,11.94
2017-10-15T00:44:24.699Z,11.97
2017-10-15T00:45:24.661Z,11.94
2017-10-15T00:46:24.633Z,11.81
2017-10-15T00:47:24.599Z,11.86
2017-10-15T00:48:24.562Z,11.83
2017-10-15T00:49:24.531Z,11.86
2017-10-15T00:50:24.494Z,11.75
2017-10-15T00:51:24.459Z,11.75
2017-10-15T00:52:24.426Z,11.73
2017-10-15T00:53:24.393Z,11.77
2017-10-15T00:54:24.359Z,11.66
2017-10-15T00:55:24.340Z,11.65
2017-10-15T00:56:24.289Z,11.70
2017-10-15T00:57:24.256Z,11.66
2017-10-15T00:58:24.222Z,11.60
2017-10-15T00:59:24.198Z,11.66
2017-10-15T01:00:24.152Z,11.68
2017-10-15T01:01:24.120Z,11.66
2017-10-15T01:02:24.086Z,11.70
2017-10-15T01:03:24.052Z,11.60
2017-10-15T01:04:24.018Z,11.60
2017-10-15T01:05:23.985Z,11.57
2017-10-15T01:06:23.951Z,11.60
2017-10-15T01:07:23.917Z,11.60
2017-10-15T01:08:23.881Z,11.62
2017-10-15T01:09:23.846Z,11.59
2017-10-15T01:10:23.811Z,11.57
2017-10-15T01:11:24.125Z,11.69
2017-10-15T01:12:23.743Z,11.68
2017-10-15T01:13:23.713Z,11.52
2017-10-15T01:14:23.676Z,11.57
2017-10-15T01:15:23.642Z,11.48
2017-10-15T01:16:23.608Z,11.44
2017-10-15T01:17:23.570Z,11.18
2017-10-15T01:18:23.541Z,11.07
2017-10-15T01:19:23.505Z,11.02
2017-10-15T01:20:23.471Z,10.97
2017-10-15T01:21:23.438Z,11.00
2017-10-15T01:22:23.402Z,10.94
2017-10-15T01:23:23.367Z,10.94
2017-10-15T01:24:23.332Z,10.96
2017-10-15T01:25:23.299Z,11.00
2017-10-15T01:26:23.264Z,10.94
2017-10-15T01:27:23.228Z,11.10
2017-10-15T01:28:23.195Z,11.10
2017-10-15T01:29:23.159Z,11.12
2017-10-15T01:30:23.124Z,11.19
2017-10-15T01:31:23.088Z,11.27
2017-10-15T01:32:23.051Z,11.22
2017-10-15T01:33:23.020Z,11.23
2017-10-15T01:34:22.985Z,11.23
2017-10-15T01:35:22.950Z,11.22
2017-10-15T01:36:22.914Z,11.17
2017-10-15T01:37:22.881Z,11.22
2017-10-15T01:38:23.011Z,11.18
2017-10-15T01:39:22.815Z,11.22
2017-10-15T01:40:22.775Z,11.19
2017-10-15T01:41:22.741Z,11.15
2017-10-15T01:42:22.706Z,11.04
2017-10-15T01:43:22.669Z,10.93
2017-10-15T01:44:22.636Z,11.00
2017-10-15T01:45:22.601Z,10.94
2017-10-15T01:46:22.567Z,10.92
2017-10-15T01:47:22.533Z,10.93
2017-10-15T01:48:22.498Z,10.89
2017-10-15T01:49:22.464Z,10.99
2017-10-15T01:50:22.431Z,10.90
2017-10-15T01:51:22.393Z,10.97
2017-10-15T01:52:22.360Z,10.97
2017-10-15T01:53:22.325Z,10.89
2017-10-15T01:54:22.289Z,10.96
2017-10-15T01:55:22.255Z,11.04
2017-10-15T01:56:22.220Z,10.97
2017-10-15T01:57:22.184Z,11.05
2017-10-15T01:58:22.600Z,11.10
2017-10-15T01:59:22.116Z,11.15
2017-10-15T02:00:22.081Z,11.10
2017-10-15T02:01:22.048Z,11.12
2017-10-15T02:02:22.015Z,11.17
2017-10-15T02:03:21.978Z,11.18
2017-10-15T02:04:21.942Z,11.17
2017-10-15T02:05:21.909Z,11.18
2017-10-15T02:06:21.873Z,11.18
2017-10-15T02:07:21.838Z,11.11
2017-10-15T02:08:21.899Z,11.12
2017-10-15T02:09:21.770Z,11.08
2017-10-15T02:10:21.735Z,11.19
2017-10-15T02:11:21.699Z,11.15
2017-10-15T02:12:21.665Z,11.18
2017-10-15T02:13:21.632Z,11.18
2017-10-15T02:14:21.596Z,11.23
2017-10-15T02:15:21.562Z,11.25
2017-10-15T02:16:21.527Z,11.18
2017-10-15T02:17:21.491Z,11.25
2017-10-15T02:18:21.458Z,11.17
2017-10-15T02:19:21.423Z,11.11
2017-10-15T02:20:21.394Z,11.11
2017-10-15T02:21:21.354Z,11.26
2017-10-15T02:22:21.320Z,11.30
2017-10-15T02:23:21.284Z,11.44
2017-10-15T02:24:21.249Z,11.51
2017-10-15T02:25:21.217Z,11.55
2017-10-15T02:26:21.182Z,11.57
2017-10-15T02:27:21.152Z,11.69
2017-10-15T02:28:21.111Z,11.63
2017-10-15T02:29:21.076Z,11.65
2017-10-15T02:30:21.042Z,11.73
2017-10-15T02:31:21.006Z,11.73
2017-10-15T02:32:20.973Z,11.84
2017-10-15T02:33:20.938Z,11.88
2017-10-15T02:34:20.904Z,11.87
2017-10-15T02:35:20.866Z,11.77
2017-10-15T02:36:20.832Z,11.78
2017-10-15T02:37:20.799Z,11.84
2017-10-15T02:38:20.765Z,11.78
2017-10-15T02:39:20.727Z,11.77
2017-10-15T02:40:20.694Z,11.78
2017-10-15T02:41:20.661Z,11.72
2017-10-15T02:42:20.626Z,11.69
2017-10-15T02:43:20.589Z,11.72
2017-10-15T02:44:20.559Z,11.69
2017-10-15T02:45:20.521Z,11.68
2017-10-15T02:46:20.507Z,11.69
2017-10-15T02:47:20.451Z,11.69
2017-10-15T02:48:20.417Z,11.69
2017-10-15T02:49:20.382Z,11.63
2017-10-15T02:50:20.348Z,11.66
2017-10-15T02:51:20.317Z,11.66
2017-10-15T02:52:20.279Z,11.62
2017-10-15T02:53:20.247Z,11.59
2017-10-15T02:54:20.209Z,11.52
2017-10-15T02:55:20.172Z,11.50
2017-10-15T02:56:20.139Z,11.44
2017-10-15T02:57:20.105Z,11.44
2017-10-15T02:58:20.070Z,11.43
2017-10-15T02:59:20.034Z,11.47
2017-10-15T03:00:20.003Z,11.45
2017-10-15T03:01:19.969Z,11.45
2017-10-15T03:02:19.931Z,11.44
2017-10-15T03:03:19.896Z,11.47
2017-10-15T03:04:19.871Z,11.50
2017-10-15T03:05:19.827Z,11.48
2017-10-15T03:06:19.815Z,11.48
2017-10-15T03:07:19.758Z,11.59
2017-10-15T03:08:19.723Z,11.45
2017-10-15T03:09:19.687Z,11.44
2017-10-15T03:10:19.653Z,11.48
2017-10-15T03:11:19.617Z,11.47
2017-10-15T03:12:19.582Z,11.43
2017-10-15T03:13:19.547Z,11.40
2017-10-15T03:14:19.514Z,11.36
2017-10-15T03:15:19.497Z,11.40
2017-10-15T03:16:19.443Z,11.44
2017-10-15T03:17:19.407Z,11.41
2017-10-15T03:18:19.373Z,11.47
2017-10-15T03:19:19.338Z,11.41
2017-10-15T03:20:19.304Z,11.32
2017-10-15T03:21:19.270Z,11.41
2017-10-15T03:22:19.236Z,11.43
2017-10-15T03:23:19.199Z,11.40
2017-10-15T03:24:19.164Z,11.33
2017-10-15T03:25:19.144Z,11.37
2017-10-15T03:26:19.096Z,11.35
2017-10-15T03:27:19.303Z,11.47
2017-10-15T03:28:19.027Z,11.45
2017-10-15T03:29:18.990Z,11.43
2017-10-15T03:30:18.957Z,11.50
2017-10-15T03:31:18.919Z,11.45
2017-10-15T03:32:18.885Z,11.59
2017-10-15T03:33:18.851Z,11.55
2017-10-15T03:34:18.815Z,11.66
2017-10-15T03:35:18.781Z,11.60
2017-10-15T03:36:18.746Z,11.55
2017-10-15T03:37:18.713Z,11.60
2017-10-15T03:38:18.676Z,11.66
2017-10-15T03:39:18.643Z,11.63
2017-10-15T03:40:18.606Z,11.55
2017-10-15T03:41:18.573Z,11.70
2017-10-15T03:42:18.541Z,11.70
2017-10-15T03:43:18.503Z,11.72
2017-10-15T03:44:18.467Z,11.78
2017-10-15T03:45:18.434Z,11.81
2017-10-15T03:46:18.398Z,11.83
2017-10-15T03:47:18.363Z,11.80
2017-10-15T03:48:18.328Z,11.87
2017-10-15T03:49:18.292Z,11.77
2017-10-15T03:50:18.260Z,11.90
2017-10-15T03:51:18.223Z,11.78
2017-10-15T03:52:18.189Z,11.97
2017-10-15T03:53:18.156Z,11.94
2017-10-15T03:54:18.123Z,11.97
2017-10-15T03:55:18.085Z,11.84
2017-10-15T03:56:18.050Z,11.86
2017-10-15T03:57:18.017Z,11.86
2017-10-15T03:58:17.984Z,11.95
2017-10-15T03:59:17.947Z,11.95
2017-10-15T04:00:17.916Z,11.86
2017-10-15T04:01:17.878Z,11.88
2017-10-15T04:02:17.844Z,11.94
2017-10-15T04:03:17.807Z,11.83
2017-10-15T04:04:17.774Z,11.80
2017-10-15T04:05:17.745Z,11.83
2017-10-15T04:06:17.705Z,11.86
2017-10-15T04:07:17.670Z,11.77
2017-10-15T04:08:17.636Z,11.84
2017-10-15T04:09:17.600Z,11.87
2017-10-15T04:10:17.566Z,11.84
2017-10-15T04:11:17.532Z,11.83
2017-10-15T04:12:17.497Z,11.78
2017-10-15T04:13:17.467Z,11.77
2017-10-15T04:14:17.428Z,11.80
2017-10-15T04:15:17.392Z,11.80
2017-10-15T04:16:17.357Z,11.73
2017-10-15T04:17:17.323Z,11.81
2017-10-15T04:18:17.287Z,11.78
2017-10-15T04:19:17.253Z,11.70
2017-10-15T04:20:17.215Z,11.65
2017-10-15T04:21:17.184Z,11.77
2017-10-15T04:22:17.150Z,11.66
2017-10-15T04:23:17.114Z,11.68
2017-10-15T04:24:17.080Z,11.62
2017-10-15T04:25:17.047Z,11.70
2017-10-15T04:26:17.011Z,11.60
2017-10-15T04:27:16.975Z,11.54
2017-10-15T04:28:16.940Z,11.57
2017-10-15T04:29:16.907Z,11.60
2017-10-15T04:30:16.872Z,11.60
2017-10-15T04:31:16.836Z,11.57
2017-10-15T04:32:16.802Z,11.52
2017-10-15T04:33:16.766Z,11.48
2017-10-15T04:34:16.731Z,11.50
2017-10-15T04:35:16.698Z,11.48
2017-10-15T04:36:16.664Z,11.43
2017-10-15T04:37:16.630Z,11.40
2017-10-15T04:38:16.593Z,11.37
2017-10-15T04:39:16.558Z,11.47
2017-10-15T04:40:16.524Z,11.47
2017-10-15T04:41:16.490Z,11.50
2017-10-15T04:42:16.454Z,11.45
2017-10-15T04:43:16.419Z,11.50
2017-10-15T04:44:16.386Z,11.45
2017-10-15T04:45:16.355Z,11.45
2017-10-15T04:46:16.314Z,11.43
2017-10-15T04:47:16.280Z,11.45
2017-10-15T04:48:16.245Z,11.47
2017-10-15T04:49:16.210Z,11.44
2017-10-15T04:50:16.176Z,11.43
2017-10-15T04:51:16.139Z,11.43
2017-10-15T04:52:16.106Z,11.40
2017-10-15T04:53:16.073Z,11.43
2017-10-15T04:54:16.036Z,11.43
2017-10-15T04:55:16.002Z,11.44
2017-10-15T04:56:15.967Z,11.40
2017-10-15T04:57:15.931Z,11.43
2017-10-15T04:58:15.896Z,11.44
2017-10-15T04:59:15.863Z,11.40
2017-10-15T05:00:15.827Z,11.43
2017-10-15T05:01:15.792Z,11.43
2017-10-15T05:02:15.756Z,11.48
2017-10-15T05:03:15.722Z,11.43
2017-10-15T05:04:15.688Z,11.40
2017-10-15T05:05:15.652Z,11.41
2017-10-15T05:06:15.617Z,11.40
2017-10-15T05:07:15.582Z,11.37
2017-10-15T05:08:15.546Z,11.41
2017-10-15T05:09:15.512Z,11.45
2017-10-15T05:10:15.477Z,11.36
2017-10-15T05:11:15.442Z,11.47
2017-10-15T05:12:15.408Z,11.32
2017-10-15T05:13:15.373Z,11.40
2017-10-15T05:14:15.338Z,11.45
2017-10-15T05:15:15.302Z,11.41
2017-10-15T05:16:15.267Z,11.36
2017-10-15T05:17:15.443Z,11.41
2017-10-15T05:18:15.198Z,11.35
2017-10-15T05:19:15.165Z,11.35
2017-10-15T05:20:15.127Z,11.32
2017-10-15T05:21:15.095Z,11.25
2017-10-15T05:22:15.059Z,11.30
2017-10-15T05:23:15.022Z,11.40
2017-10-15T05:24:15.314Z,11.35
2017-10-15T05:25:14.952Z,11.43
2017-10-15T05:26:15.572Z,11.30
2017-10-15T05:27:14.884Z,11.32
2017-10-15T05:28:14.846Z,11.27
2017-10-15T05:29:14.814Z,11.15
2017-10-15T05:30:14.781Z,11.25
2017-10-15T05:31:14.741Z,11.23
2017-10-15T05:32:14.710Z,11.15
2017-10-15T05:33:14.673Z,11.14
2017-10-15T05:34:14.641Z,11.17
2017-10-15T05:35:14.604Z,11.18
2017-10-15T05:36:14.571Z,11.27
2017-10-15T05:37:14.534Z,11.15
2017-10-15T05:38:14.500Z,11.18
2017-10-15T05:39:14.466Z,11.19
2017-10-15T05:40:14.431Z,11.19
2017-10-15T05:41:14.396Z,11.23
2017-10-15T05:42:14.361Z,11.25
2017-10-15T05:43:14.324Z,11.30
2017-10-15T05:44:14.289Z,11.37
2017-10-15T05:45:14.415Z,11.29
2017-10-15T05:46:14.221Z,11.36
2017-10-15T05:47:14.185Z,11.35
2017-10-15T05:48:14.149Z,11.29
2017-10-15T05:49:14.116Z,11.35
2017-10-15T05:50:14.081Z,11.35
2017-10-15T05:51:14.046Z,11.32
2017-10-15T05:52:14.004Z,11.32
2017-10-15T05:53:13.978Z,11.32
2017-10-15T05:54:13.941Z,11.29
2017-10-15T05:55:13.905Z,11.26
2017-10-15T05:56:13.876Z,11.37
2017-10-15T05:57:13.836Z,11.22
2017-10-15T05:58:13.802Z,11.22
2017-10-15T05:59:13.765Z,11.22
2017-10-15T06:00:13.730Z,11.25
2017-10-15T06:01:13.696Z,11.22
2017-10-15T06:02:13.662Z,11.19
2017-10-15T06:03:13.625Z,11.25
2017-10-15T06:04:13.593Z,11.19
2017-10-15T06:05:13.555Z,11.25
2017-10-15T06:06:13.523Z,11.23
2017-10-15T06:07:13.491Z,11.23
2017-10-15T06:08:13.451Z,11.26
2017-10-15T06:09:13.417Z,11.22
2017-10-15T06:10:13.382Z,11.18
2017-10-15T06:11:13.348Z,11.30
2017-10-15T06:12:13.315Z,11.32
2017-10-15T06:13:13.280Z,11.29
2017-10-15T06:14:13.243Z,11.37
2017-10-15T06:15:13.208Z,11.32
2017-10-15T06:16:13.176Z,11.41
2017-10-15T06:17:13.140Z,11.33
2017-10-15T06:18:13.104Z,11.44
2017-10-15T06:19:13.068Z,11.45
2017-10-15T06:20:13.034Z,11.54
2017-10-15T06:21:13.005Z,11.54
2017-10-15T06:22:12.966Z,11.65
2017-10-15T06:23:12.931Z,11.69
2017-10-15T06:24:12.897Z,11.69
2017-10-15T06:25:12.863Z,11.73
2017-10-15T06:26:12.828Z,11.83
2017-10-15T06:27:12.794Z,11.83
2017-10-15T06:28:12.759Z,11.86
2017-10-15T06:29:12.727Z,11.86
2017-10-15T06:30:12.695Z,12.04
2017-10-15T06:31:12.657Z,12.03
2017-10-15T06:32:12.624Z,12.00
2017-10-15T06:33:12.588Z,12.09
2017-10-15T06:34:12.556Z,12.17
2017-10-15T06:35:12.521Z,12.22
2017-10-15T06:36:12.488Z,12.27
2017-10-15T06:37:12.456Z,12.27
2017-10-15T06:38:12.422Z,12.37
2017-10-15T06:39:12.389Z,12.55
2017-10-15T06:40:12.356Z,12.55
2017-10-15T06:41:12.470Z,12.55
2017-10-15T06:42:12.289Z,12.65
2017-10-15T06:43:12.256Z,12.67
2017-10-15T06:44:12.224Z,12.72
2017-10-15T06:45:12.192Z,12.64
2017-10-15T06:46:12.162Z,12.78
2017-10-15T06:47:12.126Z,12.82
2017-10-15T06:48:12.096Z,12.80
2017-10-15T06:49:12.060Z,12.83
2017-10-15T06:50:12.031Z,12.83
2017-10-15T06:51:11.998Z,12.86
2017-10-15T06:52:11.967Z,12.94
2017-10-15T06:53:11.935Z,13.03
2017-10-15T06:54:11.905Z,13.08
2017-10-15T06:55:11.872Z,13.05
2017-10-15T06:56:11.843Z,13.19
2017-10-15T06:57:11.808Z,13.09
2017-10-15T06:58:11.779Z,13.28
2017-10-15T06:59:11.747Z,13.39
2017-10-15T07:00:11.718Z,13.38
2017-10-15T07:01:11.685Z,13.52
2017-10-15T07:02:11.656Z,13.47
2017-10-15T07:03:11.623Z,13.57
2017-10-15T07:04:11.594Z,13.60
2017-10-15T07:05:11.564Z,13.77
2017-10-15T07:06:11.595Z,13.97
2017-10-15T07:07:11.504Z,14.00
2017-10-15T07:08:11.474Z,14.14
2017-10-15T07:09:11.444Z,14.18
2017-10-15T07:10:11.413Z,14.29
2017-10-15T07:11:11.383Z,14.44
2017-10-15T07:12:11.355Z,14.58
2017-10-15T07:13:11.325Z,14.58
2017-10-15T07:14:11.294Z,14.69
2017-10-15T07:15:11.265Z,14.66
2017-10-15T07:16:11.240Z,14.68
2017-10-15T07:17:11.208Z,14.63
2017-10-15T07:18:11.179Z,14.58
2017-10-15T07:19:11.151Z,14.45
2017-10-15T07:20:11.121Z,14.59
2017-10-15T07:21:11.091Z,14.79
2017-10-15T07:22:11.065Z,14.77
2017-10-15T07:23:11.036Z,14.84
2017-10-15T07:24:11.008Z,14.94
2017-10-15T07:25:10.979Z,14.86
2017-10-15T07:26:10.950Z,15.07
2017-10-15T07:27:10.921Z,15.11
2017-10-15T07:28:10.895Z,15.09
2017-10-15T07:29:10.867Z,15.15
2017-10-15T07:30:10.840Z,15.22
2017-10-15T07:31:10.808Z,15.31
2017-10-15T07:32:10.781Z,15.18
2017-10-15T07:33:10.754Z,15.31
2017-10-15T07:34:10.730Z,15.52
2017-10-15T07:35:10.698Z,15.68
2017-10-15T07:36:10.673Z,15.94
2017-10-15T07:37:10.643Z,16.00
2017-10-15T07:38:10.615Z,16.09
2017-10-15T07:39:10.594Z,16.00
2017-10-15T07:40:10.561Z,15.91
2017-10-15T07:41:10.535Z,16.16
2017-10-15T07:42:10.507Z,16.21
2017-10-15T07:43:10.481Z,15.98
2017-10-15T07:44:10.453Z,16.15
2017-10-15T07:45:10.428Z,16.43
2017-10-15T07:46:10.399Z,16.50
2017-10-15T07:47:10.373Z,16.42
2017-10-15T07:48:10.343Z,16.32
2017-10-15T07:49:10.320Z,16.23
2017-10-15T07:50:10.295Z,16.26
2017-10-15T07:51:10.269Z,16.31
2017-10-15T07:52:10.251Z,16.29
2017-10-15T07:53:14.104Z,16.29
2017-10-15T07:54:11.104Z,16.51
2017-10-15T07:55:11.105Z,16.58
2017-10-15T07:56:10.152Z,16.58
2017-10-15T07:57:10.602Z,16.65
2017-10-15T07:58:10.086Z,16.74
2017-10-15T07:59:10.443Z,16.91
2017-10-15T08:00:10.036Z,16.94
2017-10-15T08:01:10.009Z,17.15
2017-10-15T08:02:09.983Z,17.16
2017-10-15T08:03:09.960Z,17.38
2017-10-15T08:04:09.940Z,17.45
2017-10-15T08:05:09.915Z,17.38
2017-10-15T08:06:09.882Z,17.49
2017-10-15T08:07:09.851Z,17.54
2017-10-15T08:08:09.838Z,17.79
2017-10-15T08:09:09.808Z,17.86
2017-10-15T08:10:09.784Z,17.86
2017-10-15T08:11:09.758Z,18.07
2017-10-15T08:12:09.731Z,18.04
2017-10-15T08:13:09.710Z,18.38
2017-10-15T08:14:09.689Z,18.49
2017-10-15T08:15:09.661Z,18.93
2017-10-15T08:16:09.636Z,19.02
2017-10-15T08:17:09.614Z,19.44
2017-10-15T08:18:09.589Z,19.40
2017-10-15T08:19:09.573Z,19.62
2017-10-15T08:20:09.542Z,19.41
2017-10-15T08:21:09.526Z,19.49
2017-10-15T08:22:09.495Z,19.49
2017-10-15T08:23:09.473Z,19.48
2017-10-15T08:24:09.449Z,19.74
2017-10-15T08:25:09.433Z,19.84
2017-10-15T08:26:09.403Z,19.82
2017-10-15T08:27:09.381Z,19.96
2017-10-15T08:28:09.359Z,20.31
2017-10-15T08:29:09.333Z,20.21
2017-10-15T08:30:09.313Z,20.37
2017-10-15T08:31:09.294Z,20.55
2017-10-15T08:32:09.268Z,20.63
2017-10-15T08:33:09.247Z,20.67
2017-10-15T08:34:09.225Z,20.66
2017-10-15T08:35:09.203Z,20.50
2017-10-15T08:36:09.384Z,20.41
2017-10-15T08:37:09.159Z,20.39
2017-10-15T08:38:09.137Z,20.60
2017-10-15T08:39:09.122Z,20.44
2017-10-15T08:40:09.092Z,20.72
2017-10-15T08:41:09.071Z,21.07
2017-10-15T08:42:09.049Z,21.11
2017-10-15T08:43:09.028Z,21.00
2017-10-15T08:44:09.004Z,21.05
2017-10-15T08:45:08.986Z,21.09
2017-10-15T08:46:08.961Z,21.17
2017-10-15T08:47:08.942Z,21.11
2017-10-15T08:48:08.917Z,21.30
2017-10-15T08:49:08.898Z,21.40
2017-10-15T08:50:08.876Z,21.37
2017-10-15T08:51:08.853Z,21.51
2017-10-15T08:52:08.832Z,21.70
2017-10-15T08:53:08.813Z,21.72
2017-10-15T08:54:08.791Z,21.61
2017-10-15T08:55:08.768Z,21.83
2017-10-15T08:56:08.748Z,21.95
2017-10-15T08:57:08.725Z,22.08
2017-10-15T08:58:08.928Z,22.02
2017-10-15T08:59:08.698Z,21.70
2017-10-15T09:00:08.663Z,21.62
2017-10-15T09:01:08.646Z,21.55
2017-10-15T09:02:08.621Z,21.69
2017-10-15T09:03:08.601Z,21.61
2017-10-15T09:04:08.577Z,21.85
2017-10-15T09:05:08.556Z,22.02
2017-10-15T09:06:08.535Z,22.11
2017-10-15T09:07:08.513Z,22.02
2017-10-15T09:08:08.496Z,22.06
2017-10-15T09:09:08.471Z,22.26
2017-10-15T09:10:08.451Z,22.59
2017-10-15T09:11:08.429Z,22.44
2017-10-15T09:12:08.409Z,22.45
2017-10-15T09:13:08.387Z,22.69
2017-10-15T09:14:08.664Z,22.91
2017-10-15T09:15:08.345Z,23.09
2017-10-15T09:16:08.324Z,22.90
2017-10-15T09:17:08.303Z,23.00
2017-10-15T09:18:08.283Z,22.87
2017-10-15T09:19:08.261Z,22.83
2017-10-15T09:21:08.221Z,22.85
2017-10-15T09:22:08.201Z,22.84
2017-10-15T09:23:08.178Z,22.98
2017-10-15T09:24:08.964Z,23.00
2017-10-15T09:25:08.138Z,23.12
2017-10-15T09:26:08.118Z,23.23
2017-10-15T09:27:08.096Z,23.23
2017-10-15T09:28:08.076Z,23.46
2017-10-15T09:29:08.059Z,23.39
2017-10-15T09:30:08.037Z,23.43
2017-10-15T09:31:08.014Z,23.40
2017-10-15T09:32:07.994Z,23.39
2017-10-15T09:33:07.973Z,23.40
2017-10-15T09:34:07.952Z,23.36
2017-10-15T09:35:08.266Z,23.73
2017-10-15T09:36:07.912Z,23.76
2017-10-15T09:37:07.891Z,23.56
2017-10-15T09:38:08.268Z,23.47
2017-10-15T09:39:07.851Z,23.63
2017-10-15T09:40:07.830Z,23.73
2017-10-15T09:41:07.809Z,23.73
2017-10-15T09:42:07.794Z,23.69
2017-10-15T09:43:07.772Z,23.68
2017-10-15T09:44:07.753Z,23.78
2017-10-15T09:45:07.728Z,23.77
2017-10-15T09:46:07.707Z,23.96
2017-10-15T09:47:07.687Z,24.21
2017-10-15T09:48:07.668Z,24.38
2017-10-15T09:49:07.646Z,24.58
2017-10-15T09:50:07.626Z,24.66
2017-10-15T09:51:07.606Z,24.36
2017-10-15T09:52:07.586Z,24.58
2017-10-15T09:53:07.569Z,24.54
2017-10-15T09:54:07.545Z,24.54
2017-10-15T09:55:07.525Z,24.58
2017-10-15T09:56:07.504Z,24.63
2017-10-15T09:57:07.485Z,25.01
2017-10-15T09:58:07.465Z,25.06
2017-10-15T09:59:07.445Z,25.29
2017-10-15T10:00:07.425Z,25.40
2017-10-15T10:01:07.406Z,25.31
2017-10-15T10:02:07.384Z,25.32
2017-10-15T10:03:07.363Z,25.51
2017-10-15T10:04:07.345Z,25.60
2017-10-15T10:05:07.325Z,26.06
2017-10-15T10:06:07.304Z,26.45
2017-10-15T10:07:07.285Z,26.38
2017-10-15T10:08:07.270Z,26.77
2017-10-15T10:09:07.245Z,26.66
2017-10-15T10:10:07.228Z,26.90
2017-10-15T10:11:07.207Z,27.18
2017-10-15T10:12:07.186Z,27.37
2017-10-15T10:13:07.167Z,27.20
2017-10-15T10:14:07.148Z,27.32
2017-10-15T10:15:07.129Z,27.12
2017-10-15T10:16:07.110Z,27.32
2017-10-15T10:17:07.090Z,27.44
2017-10-15T10:18:07.070Z,27.63
2017-10-15T10:19:07.051Z,27.73
2017-10-15T10:20:07.034Z,27.44
2017-10-15T10:21:07.030Z,27.44
2017-10-15T10:22:06.997Z,27.32
2017-10-15T10:23:06.977Z,27.45
2017-10-15T10:24:06.958Z,27.52
2017-10-15T10:25:06.937Z,27.44
2017-10-15T10:26:06.919Z,27.17
2017-10-15T10:27:06.899Z,27.11
2017-10-15T10:28:06.881Z,26.97
2017-10-15T10:29:06.861Z,26.95
2017-10-15T10:30:06.871Z,27.11
2017-10-15T10:31:06.823Z,27.42
2017-10-15T10:32:06.804Z,28.05
2017-10-15T10:33:06.785Z,28.37
2017-10-15T10:34:06.766Z,28.07
2017-10-15T10:35:06.745Z,28.04
2017-10-15T10:36:06.727Z,27.52
2017-10-15T10:37:06.710Z,27.05
2017-10-15T10:38:06.704Z,26.90
2017-10-15T10:39:06.672Z,27.54
2017-10-15T10:40:06.652Z,27.67
2017-10-15T10:41:06.633Z,28.30
2017-10-15T10:43:07.565Z,28.84
2017-10-15T10:44:06.592Z,29.13
2017-10-15T10:45:06.558Z,29.16
2017-10-15T10:46:06.537Z,29.29
2017-10-15T10:47:06.519Z,29.16
2017-10-15T10:48:06.501Z,29.47
2017-10-15T10:49:06.481Z,29.57
2017-10-15T10:50:06.463Z,29.71
2017-10-15T10:51:06.450Z,29.86
2017-10-15T10:52:06.442Z,30.31
2017-10-15T10:53:06.407Z,30.59
2017-10-15T10:54:06.391Z,30.69
2017-10-15T10:55:06.371Z,30.91
2017-10-15T10:56:06.354Z,30.81
2017-10-15T10:57:06.335Z,30.39
2017-10-15T10:58:06.319Z,30.43
2017-10-15T10:59:06.298Z,30.43
2017-10-15T11:00:06.281Z,30.92
2017-10-15T11:01:06.264Z,30.48
2017-10-15T11:02:06.248Z,30.61
2017-10-15T11:03:06.227Z,30.78
2017-10-15T11:04:06.230Z,30.34
2017-10-15T11:05:06.193Z,30.03
2017-10-15T11:06:06.176Z,29.84
2017-10-15T11:07:06.157Z,29.90
2017-10-15T11:08:06.139Z,30.06
2017-10-15T11:09:06.122Z,30.03
2017-10-15T11:10:06.102Z,30.32
2017-10-15T11:11:06.084Z,30.44
2017-10-15T11:12:06.067Z,30.40
2017-10-15T11:13:06.051Z,30.27
2017-10-15T11:14:06.031Z,29.82
2017-10-15T11:15:06.012Z,29.66
2017-10-15T11:16:05.995Z,29.65
2017-10-15T11:17:05.980Z,29.59
2017-10-15T11:18:06.218Z,29.84
2017-10-15T11:19:05.939Z,30.13
2017-10-15T11:20:05.922Z,30.43
2017-10-15T11:21:05.907Z,30.06
2017-10-15T11:22:05.893Z,29.90
2017-10-15T11:23:05.870Z,29.61
2017-10-15T11:24:05.848Z,29.57
2017-10-15T11:25:05.833Z,29.57
2017-10-15T11:26:05.819Z,29.27
2017-10-15T11:27:05.797Z,30.03
2017-10-15T11:28:05.781Z,30.34
2017-10-15T11:29:05.762Z,30.75
2017-10-15T11:30:05.745Z,31.15
2017-10-15T11:31:05.726Z,31.24
2017-10-15T11:32:05.712Z,31.12
2017-10-15T11:33:05.690Z,31.24
2017-10-15T11:34:05.675Z,30.97
2017-10-15T11:35:05.652Z,30.48
2017-10-15T11:36:05.639Z,29.97
2017-10-15T11:37:05.622Z,30.02
2017-10-15T11:38:05.603Z,30.09
2017-10-15T11:39:05.586Z,29.98
2017-10-15T11:40:05.568Z,30.19
2017-10-15T11:41:05.551Z,30.40
2017-10-15T11:42:05.534Z,30.31
2017-10-15T11:43:05.514Z,30.44
2017-10-15T11:44:05.502Z,30.39
2017-10-15T11:45:05.480Z,30.19
2017-10-15T11:46:05.476Z,30.32
2017-10-15T11:47:05.444Z,30.18
2017-10-15T11:48:05.431Z,30.16
2017-10-15T11:49:05.409Z,30.08
2017-10-15T11:50:05.392Z,30.13
2017-10-15T11:51:05.378Z,29.97
2017-10-15T11:52:05.364Z,30.30
2017-10-15T11:53:05.338Z,30.68
2017-10-15T11:54:05.322Z,30.84
2017-10-15T11:55:05.303Z,31.17
2017-10-15T11:56:05.286Z,31.09
2017-10-15T11:57:05.269Z,31.52
2017-10-15T11:58:05.251Z,31.85
2017-10-15T11:59:05.232Z,31.46
2017-10-15T12:00:05.214Z,30.99
2017-10-15T12:01:05.197Z,31.27
2017-10-15T12:02:05.181Z,31.59
2017-10-15T12:03:05.164Z,30.90
2017-10-15T12:04:05.146Z,30.59
2017-10-15T12:05:05.130Z,30.72
2017-10-15T12:06:05.112Z,31.18
2017-10-15T12:07:05.693Z,31.31
2017-10-15T12:08:05.078Z,31.31
2017-10-15T12:09:05.064Z,31.17
2017-10-15T12:10:05.042Z,30.72
2017-10-15T12:11:05.024Z,30.88
2017-10-15T12:12:05.007Z,30.19
2017-10-15T12:13:04.992Z,29.61
2017-10-15T12:14:04.974Z,29.24
2017-10-15T12:15:04.954Z,28.72
2017-10-15T12:16:04.943Z,28.10
2017-10-15T12:17:04.924Z,27.35
2017-10-15T12:18:04.901Z,27.60
2017-10-15T12:19:04.887Z,27.73
2017-10-15T12:20:04.864Z,27.95
2017-10-15T12:21:04.844Z,27.95
2017-10-15T12:22:04.824Z,27.87
2017-10-15T12:23:04.804Z,28.11
2017-10-15T12:24:04.782Z,28.32
2017-10-15T12:25:04.764Z,28.75
2017-10-15T12:26:04.744Z,29.16
2017-10-15T12:27:04.722Z,29.41
2017-10-15T12:28:04.698Z,29.95
2017-10-15T12:29:04.696Z,30.44
2017-10-15T12:30:04.655Z,30.65
2017-10-15T12:31:04.635Z,30.87
2017-10-15T12:32:04.613Z,30.96
2017-10-15T12:33:04.596Z,30.69
2017-10-15T12:34:04.573Z,30.40
2017-10-15T12:35:04.552Z,30.55
2017-10-15T12:36:04.531Z,30.87
2017-10-15T12:37:04.514Z,31.20
2017-10-15T12:38:04.493Z,31.58
2017-10-15T12:39:04.599Z,31.74
2017-10-15T12:40:04.453Z,31.90
2017-10-15T12:41:04.434Z,32.03
2017-10-15T12:42:04.416Z,32.11
2017-10-15T12:43:04.393Z,31.78
2017-10-15T12:44:04.376Z,31.29
2017-10-15T12:45:04.363Z,30.92
2017-10-15T12:46:04.338Z,30.88
2017-10-15T12:47:04.319Z,31.17
2017-10-15T12:48:04.298Z,31.28
2017-10-15T12:49:04.281Z,31.33
2017-10-15T12:50:04.264Z,31.36
2017-10-15T12:51:04.243Z,31.25
2017-10-15T12:52:04.226Z,31.58
2017-10-15T12:53:04.206Z,31.74
2017-10-15T12:54:04.188Z,31.54